Time;durP1;ratioP1;P1;durP2;ratioP2;P2;SDS_P1;SDS_P2;PMS_P1;PMS_P2;Temp;Humidity;BMP_temperature;BMP_pressure;BME280_temperature;BME280_humidity;BME280_pressure;Samples;Min_cycle;Max_cycle;Signal;HPM_P1;HPM_P2
2021/03/15 00:02:22;;;;;;;;;;;;;;;17.73;66.79;99728.44;5005130;28;1451;-62
2021/03/15 00:04:47;;;;;;;;;;;;;;;17.71;67.26;99725.91;5010096;28;1288;-60
2021/03/15 00:07:12;;;;;;;;;;;;;;;17.74;67.59;99730.94;5008063;28;1352;-63
2021/03/15 00:09:38;;;;;;;;;;;;;;;17.69;66.56;99715.38;5007042;28;1435;-63
2021/03/15 00:12:03;;;;;;;;;;;;;;;17.67;66.62;99705.81;5011728;28;1992;-60
2021/03/15 00:14:29;;;;;;;;;;;;;;;17.66;66.79;99718.34;5001452;28;1423;-60
2021/03/15 00:16:54;;;;;;;;;;;;;;;17.65;67.04;99705.97;5004693;28;1352;-63
2021/03/15 00:19:19;;;;;;;;;;;;;;;17.62;66.79;99705.44;5006329;28;1337;-63
2021/03/15 00:21:45;;;;;;;;;;;;;;;17.62;67.46;99697.41;5000760;28;1334;-63
2021/03/15 00:24:10;;;;;;;;;;;;;;;17.64;66.97;99698.09;5010762;28;1271;-59
2021/03/15 00:26:36;;;;;;;;;;;;;;;17.63;66.52;99699.94;5011351;28;1386;-63
2021/03/15 00:29:01;;;;;;;;;;;;;;;17.61;67.47;99699.25;5010591;28;1315;-59
2021/03/15 00:31:27;;;;;;;;;;;;;;;17.59;66.92;99690.53;5005829;28;2009;-63
2021/03/15 00:33:52;;;;;;;;;;;;;;;17.61;67.55;99682.38;5011348;28;1397;-63
2021/03/15 00:36:18;;;;;;;;;;;;;;;17.59;66.87;99679.03;5009111;28;1160;-62
2021/03/15 00:38:44;;;;;;;;;;;;;;;17.57;66.97;99686.34;5007186;28;1461;-60
2021/03/15 00:41:09;;;;;;;;;;;;;;;17.58;66.57;99675.47;5009476;28;1409;-63
2021/03/15 00:43:35;;;;;;;;;;;;;;;17.59;67.10;99674.50;5009580;28;1272;-62
2021/03/15 00:46:00;;;;;;;;;;;;;;;17.60;67.58;99672.66;5009373;28;1295;-61
2021/03/15 00:48:25;;;;;;;;;;;;;;;17.56;66.69;99652.56;5007865;28;1632;-62
2021/03/15 00:50:51;;;;;;;;;;;;;;;17.59;66.36;99658.47;5003628;28;1710;-60
2021/03/15 00:53:16;;;;;;;;;;;;;;;17.56;67.33;99649.91;5004265;28;1902;-59
2021/03/15 00:55:42;;;;;;;;;;;;;;;17.56;66.42;99647.22;5014220;28;1398;-63
2021/03/15 00:58:07;;;;;;;;;;;;;;;17.55;66.69;99638.38;5008409;28;1725;-63
2021/03/15 01:00:37;;;;;;;;;;;;;;;17.53;67.18;99643.03;5010209;28;1722;-60
2021/03/15 01:03:03;;;;;;;;;;;;;;;17.53;66.62;99623.47;5001859;28;1374;-63
2021/03/15 01:05:34;;;;;;;;;;;;;;;17.53;66.41;99637.69;5010730;28;1404;-62
2021/03/15 01:08:00;;;;;;;;;;;;;;;17.49;67.20;99629.13;5000463;28;1280;-63
2021/03/15 01:10:27;;;;;;;;;;;;;;;17.53;66.21;99615.44;5007611;28;1451;-60
2021/03/15 01:12:53;;;;;;;;;;;;;;;17.47;66.75;99604.41;5004041;28;1957;-62
2021/03/15 01:15:19;;;;;;;;;;;;;;;17.49;67.21;99617.63;5004341;28;1238;-60
2021/03/15 01:17:45;;;;;;;;;;;;;;;17.49;67.21;99604.25;5003130;28;1371;-60
2021/03/15 01:20:10;;;;;;;;;;;;;;;17.52;67.11;99621.81;5011042;28;1636;-60
2021/03/15 01:22:36;;;;;;;;;;;;;;;17.48;67.04;99602.56;5005018;28;1301;-62
2021/03/15 01:25:01;;;;;;;;;;;;;;;17.50;66.23;99609.41;5014654;28;1291;-60
2021/03/15 01:27:27;;;;;;;;;;;;;;;17.51;66.40;99602.25;5007872;28;1406;-60
2021/03/15 01:29:52;;;;;;;;;;;;;;;17.49;67.17;99598.91;5004285;28;1342;-60
2021/03/15 01:32:18;;;;;;;;;;;;;;;17.44;67.16;99596.69;5003842;28;1882;-59
2021/03/15 01:34:43;;;;;;;;;;;;;;;17.42;66.42;99585.31;5009562;28;1433;-60
2021/03/15 01:37:08;;;;;;;;;;;;;;;17.45;67.07;99576.16;5007027;28;1411;-60
2021/03/15 01:39:34;;;;;;;;;;;;;;;17.43;67.22;99594.19;5006391;28;1426;-60
2021/03/15 01:42:00;;;;;;;;;;;;;;;17.42;67.47;99596.00;5011254;28;1529;-62
2021/03/15 01:44:26;;;;;;;;;;;;;;;17.41;66.48;99575.63;5010561;28;1299;-60
2021/03/15 01:46:51;;;;;;;;;;;;;;;17.41;67.00;99572.13;5008302;28;1709;-59
2021/03/15 01:49:17;;;;;;;;;;;;;;;17.41;66.00;99572.13;5008403;28;1500;-60
2021/03/15 01:51:43;;;;;;;;;;;;;;;17.43;67.01;99572.81;5013558;28;1883;-60
2021/03/15 01:54:08;;;;;;;;;;;;;;;17.41;67.28;99564.94;5010117;28;1485;-60
2021/03/15 01:56:35;;;;;;;;;;;;;;;17.38;67.07;99556.38;5010158;28;1216;-60
2021/03/15 01:59:00;;;;;;;;;;;;;;;17.41;66.52;99564.09;5005380;28;1337;-60
2021/03/15 02:01:26;;;;;;;;;;;;;;;17.40;66.74;99560.56;5004817;28;1492;-61
2021/03/15 02:03:51;;;;;;;;;;;;;;;17.41;67.06;99567.59;5002664;28;1403;-63
2021/03/15 02:06:17;;;;;;;;;;;;;;;17.41;66.91;99564.09;5007381;28;1239;-60
2021/03/15 02:08:42;;;;;;;;;;;;;;;17.38;66.06;99548.34;5012580;28;1701;-60
2021/03/15 02:11:17;;;;;;;;;;;;;;;17.41;66.91;99556.91;5012295;28;1368;-60
2021/03/15 02:13:52;;;;;;;;;;;;;;;17.40;65.59;99549.03;5003489;28;1466;-60
2021/03/15 02:16:30;;;;;;;;;;;;;;;17.36;66.65;99535.16;5008947;28;1239;-62
2021/03/15 02:19:12;;;;;;;;;;;;;;;17.36;66.04;99550.34;5014170;28;1431;-60
2021/03/15 02:21:57;;;;;;;;;;;;;;;17.34;66.64;99547.00;5011590;28;1380;-62
2021/03/15 02:24:22;;;;;;;;;;;;;;;17.31;66.32;99540.13;5015956;28;1158;-60
2021/03/15 02:27:02;;;;;;;;;;;;;;;17.32;65.78;99535.63;5011958;28;1320;-62
2021/03/15 02:29:36;;;;;;;;;;;;;;;17.30;66.13;99538.44;5010486;28;1358;-63
2021/03/15 02:32:02;;;;;;;;;;;;;;;17.32;66.83;99547.13;5004775;28;1953;-60
2021/03/15 02:34:46;;;;;;;;;;;;;;;17.32;66.10;99536.44;5002936;28;1563;-61
2021/03/15 02:37:15;;;;;;;;;;;;;;;17.25;66.29;99533.56;5012567;28;1360;-63
2021/03/15 02:39:44;;;;;;;;;;;;;;;17.29;65.83;99536.78;5006489;28;923;-60
2021/03/15 02:42:11;;;;;;;;;;;;;;;17.32;66.79;99539.13;5002200;28;1784;-60
2021/03/15 02:44:37;;;;;;;;;;;;;;;17.29;65.66;99542.94;5003961;28;789;-60
2021/03/15 02:47:06;;;;;;;;;;;;;;;17.33;65.16;99535.47;5003283;28;1646;-60
2021/03/15 02:49:34;;;;;;;;;;;;;;;17.31;66.42;99526.78;5008231;28;1550;-60
2021/03/15 02:52:01;;;;;;;;;;;;;;;17.27;65.98;99526.25;5001975;28;1953;-60
2021/03/15 02:54:28;;;;;;;;;;;;;;;17.28;65.70;99529.75;5005673;28;1687;-60
2021/03/15 02:56:56;;;;;;;;;;;;;;;17.28;66.46;99535.09;4999945;28;1405;-60
2021/03/15 02:59:22;;;;;;;;;;;;;;;17.27;66.34;99530.75;5012187;28;1639;-62
2021/03/15 03:01:48;;;;;;;;;;;;;;;17.26;67.12;99537.91;5026534;22;2103;-42
2021/03/15 03:04:21;;;;;;;;;;;;;;;17.26;66.30;99527.22;5009545;28;1741;-42
2021/03/15 03:06:47;;;;;;;;;;;;;;;17.27;65.97;99526.25;5006774;28;1607;-42
2021/03/15 03:09:14;;;;;;;;;;;;;;;17.25;67.10;99527.41;5005580;28;1944;-42
2021/03/15 03:11:40;;;;;;;;;;;;;;;17.25;66.90;99519.38;5039248;22;3549;-62
2021/03/15 03:14:07;;;;;;;;;;;;;;;17.25;66.83;99514.03;5038415;28;1366;-62
2021/03/15 03:16:37;;;;;;;;;;;;;;;17.24;66.67;99512.34;5036246;28;1567;-62
2021/03/15 03:19:03;;;;;;;;;;;;;;;17.24;66.01;99493.63;5043389;28;1347;-62
2021/03/15 03:21:29;;;;;;;;;;;;;;;17.26;66.20;99510.34;5028773;28;1320;-62
2021/03/15 03:23:56;;;;;;;;;;;;;;;17.25;66.47;99503.34;5026206;28;1438;-60
2021/03/15 03:26:26;;;;;;;;;;;;;;;17.26;66.67;99505.00;5043686;28;1347;-62
2021/03/15 03:28:52;;;;;;;;;;;;;;;17.24;65.92;99488.28;5033879;28;816;-62
2021/03/15 03:31:18;;;;;;;;;;;;;;;17.24;66.38;99482.97;5035774;28;1949;-60
2021/03/15 03:33:44;;;;;;;;;;;;;;;17.24;66.39;99507.00;5045244;28;1339;-62
2021/03/15 03:36:10;;;;;;;;;;;;;;;17.22;66.33;99503.66;5042334;28;1594;-62
2021/03/15 03:38:35;;;;;;;;;;;;;;;17.22;65.50;99500.97;5025696;28;1169;-62
2021/03/15 03:41:00;;;;;;;;;;;;;;;17.22;65.23;99499.13;5036466;28;1694;-60
2021/03/15 03:43:26;;;;;;;;;;;;;;;17.20;65.90;99492.28;5008760;28;1366;-63
2021/03/15 03:45:51;;;;;;;;;;;;;;;17.19;66.32;99480.75;5045134;28;1678;-61
2021/03/15 03:48:17;;;;;;;;;;;;;;;17.22;66.04;99498.31;5037000;28;1534;-60
2021/03/15 03:50:42;;;;;;;;;;;;;;;17.21;65.41;99480.56;5038011;28;1546;-60
2021/03/15 03:53:10;;;;;;;;;;;;;;;17.20;65.36;99484.25;5034131;28;1889;-62
2021/03/15 03:55:41;;;;;;;;;;;;;;;17.21;65.51;99478.78;5016868;28;789;-62
2021/03/15 03:58:08;;;;;;;;;;;;;;;17.20;65.55;99476.25;5033593;28;1402;-62
2021/03/15 04:00:34;;;;;;;;;;;;;;;17.23;65.92;99490.13;5043179;28;1383;-60
2021/03/15 04:03:06;;;;;;;;;;;;;;;17.22;65.46;99483.09;5033562;28;1407;-62
2021/03/15 04:05:32;;;;;;;;;;;;;;;17.22;65.68;99475.09;5040568;28;1607;-60
2021/03/15 04:08:02;;;;;;;;;;;;;;;17.22;65.77;99476.94;5036049;28;1427;-67
2021/03/15 04:10:29;;;;;;;;;;;;;;;17.23;67.00;99487.47;5032573;28;1205;-60
2021/03/15 04:13:02;;;;;;;;;;;;;;;17.23;66.57;99535.56;5034518;28;1979;-61
2021/03/15 04:15:28;;;;;;;;;;;;;;;17.25;66.20;99511.38;5028738;28;1686;-60
2021/03/15 04:17:55;;;;;;;;;;;;;;;17.27;65.45;99520.91;5042477;28;1549;-61
2021/03/15 04:20:27;;;;;;;;;;;;;;;17.23;66.19;99524.00;5025492;28;2371;-60
2021/03/15 04:22:55;;;;;;;;;;;;;;;17.23;65.49;99521.34;5036760;28;1469;-62
2021/03/15 04:25:23;;;;;;;;;;;;;;;17.24;65.90;99523.03;5032151;28;1403;-61
2021/03/15 04:27:51;;;;;;;;;;;;;;;17.22;66.21;99523.19;5042592;28;1363;-62
2021/03/15 04:30:17;;;;;;;;;;;;;;;17.21;66.08;99513.50;5034483;28;1462;-61
2021/03/15 04:32:43;;;;;;;;;;;;;;;17.21;65.70;99515.31;5034309;28;1944;-61
2021/03/15 04:35:08;;;;;;;;;;;;;;;17.23;66.20;99524.00;5031842;28;1509;-59
2021/03/15 04:37:35;;;;;;;;;;;;;;;17.19;66.71;99512.81;5032509;28;1364;-62
2021/03/15 04:40:01;;;;;;;;;;;;;;;17.20;66.25;99516.31;5036705;28;1463;-61
2021/03/15 04:42:26;;;;;;;;;;;;;;;17.18;66.42;99512.97;5039398;28;1426;-61
2021/03/15 04:44:52;;;;;;;;;;;;;;;17.21;65.78;99504.63;5033257;28;1267;-61
2021/03/15 04:47:18;;;;;;;;;;;;;;;17.20;66.15;99501.13;5031923;28;1434;-60
2021/03/15 04:49:47;;;;;;;;;;;;;;;17.21;65.84;99489.44;5032239;28;1489;-60
2021/03/15 04:52:13;;;;;;;;;;;;;;;17.30;66.25;99482.34;5030530;28;1890;-60
2021/03/15 04:54:38;;;;;;;;;;;;;;;17.37;65.80;99475.38;5038962;28;1568;-59
2021/03/15 04:57:04;;;;;;;;;;;;;;;17.42;67.14;99475.72;5039083;28;1994;-60
2021/03/15 04:59:30;;;;;;;;;;;;;;;17.51;65.79;99473.97;5031163;28;1517;-61
2021/03/15 05:01:56;;;;;;;;;;;;;;;17.65;65.71;99480.56;5034697;28;1494;-60
2021/03/15 05:04:22;;;;;;;;;;;;;;;17.76;65.84;99466.91;5036337;28;1356;-62
2021/03/15 05:06:48;;;;;;;;;;;;;;;17.90;64.47;99476.22;5036656;28;1591;-62
2021/03/15 05:09:15;;;;;;;;;;;;;;;17.94;64.80;99468.72;5043399;28;1367;-60
2021/03/15 05:11:40;;;;;;;;;;;;;;;18.06;65.12;99468.28;5033633;28;1968;-61
2021/03/15 05:14:06;;;;;;;;;;;;;;;18.13;64.81;99467.63;5039062;28;1340;-62
2021/03/15 05:16:36;;;;;;;;;;;;;;;18.20;64.79;99474.81;5035970;28;1368;-62
2021/03/15 05:19:03;;;;;;;;;;;;;;;18.32;64.44;99472.69;5036773;28;1275;-59
2021/03/15 05:21:29;;;;;;;;;;;;;;;18.12;63.15;99473.97;4987542;28;10902;-59
2021/03/15 05:23:55;;;;;;;;;;;;;;;18.01;62.96;99469.75;5010005;28;1321;-59
2021/03/15 05:26:22;;;;;;;;;;;;;;;18.01;64.44;99470.59;5010754;28;1376;-60
2021/03/15 05:28:47;;;;;;;;;;;;;;;18.01;64.73;99472.44;5006454;28;1373;-60
2021/03/15 05:31:20;;;;;;;;;;;;;;;17.84;61.46;99469.66;5003695;28;1474;-60
2021/03/15 05:33:46;;;;;;;;;;;;;;;17.41;60.53;99470.56;5008062;28;1969;-60
2021/03/15 05:36:13;;;;;;;;;;;;;;;17.28;61.61;99473.63;5006811;28;1494;-60
2021/03/15 05:38:39;;;;;;;;;;;;;;;17.13;58.36;99477.84;5010856;28;1471;-64
2021/03/15 05:41:07;;;;;;;;;;;;;;;18.73;57.81;99464.75;5009754;28;1346;-63
2021/03/15 05:43:42;;;;;;;;;;;;;;;19.42;55.72;99445.69;5014421;28;1405;-65
2021/03/15 05:46:26;;;;;;;;;;;;;;;19.38;56.19;99450.56;5014402;28;1598;-63
2021/03/15 05:49:27;;;;;;;;;;;;;;;19.39;56.63;99448.72;5011048;28;1474;-62
2021/03/15 05:51:53;;;;;;;;;;;;;;;19.34;57.23;99435.81;4940898;29;1890;-61
2021/03/15 05:54:36;;;;;;;;;;;;;;;19.34;57.54;99430.47;5003388;28;1526;-67
2021/03/15 05:57:02;;;;;;;;;;;;;;;19.37;57.55;99438.16;5016348;28;1419;-60
2021/03/15 05:59:46;;;;;;;;;;;;;;;19.43;58.09;99426.75;4996791;28;1479;-60
2021/03/15 06:02:11;;;;;;;;;;;;;;;19.44;58.01;99441.00;5020980;28;1518;-63
2021/03/15 06:05:09;;;;;;;;;;;;;;;19.42;58.87;99446.53;5014741;28;1351;-66
2021/03/15 06:07:36;;;;;;;;;;;;;;;19.39;59.44;99432.63;4986814;28;1556;-59
2021/03/15 06:10:09;;;;;;;;;;;;;;;19.41;60.22;99442.16;5012738;28;1545;-68
2021/03/15 06:12:44;;;;;;;;;;;;;;;19.38;60.66;99447.88;4997123;28;1914;-61
2021/03/15 06:15:09;;;;;;;;;;;;;;;19.37;61.26;99445.38;4988945;28;1498;-61
2021/03/15 06:17:35;;;;;;;;;;;;;;;19.34;61.45;99441.19;4994811;28;1397;-58
2021/03/15 06:20:02;;;;;;;;;;;;;;;19.31;61.39;99446.88;4990418;28;1425;-60
2021/03/15 06:22:27;;;;;;;;;;;;;;;19.34;61.49;99433.16;4994417;28;1580;-57
2021/03/15 06:24:52;;;;;;;;;;;;;;;19.36;62.00;99439.16;4990813;28;1523;-61
2021/03/15 06:27:18;;;;;;;;;;;;;;;19.24;63.10;99429.81;4981231;28;1488;-61
2021/03/15 06:29:43;;;;;;;;;;;;;;;19.28;63.00;99445.38;4995990;28;1240;-61
2021/03/15 06:32:10;;;;;;;;;;;;;;;19.32;63.03;99445.03;4993611;28;1955;-58
2021/03/15 06:34:36;;;;;;;;;;;;;;;19.24;63.57;99438.69;4988680;28;10987;-68
2021/03/15 06:37:02;;;;;;;;;;;;;;;19.18;63.84;99425.09;4975442;28;1435;-58
2021/03/15 06:39:28;;;;;;;;;;;;;;;19.14;63.91;99438.03;4997634;28;1174;-60
2021/03/15 06:41:55;;;;;;;;;;;;;;;19.15;63.81;99430.81;4996556;28;1465;-62
2021/03/15 06:44:20;;;;;;;;;;;;;;;19.11;63.81;99424.97;4980216;28;1438;-65
2021/03/15 06:46:46;;;;;;;;;;;;;;;19.16;64.26;99408.34;4994144;28;1374;-64
2021/03/15 06:49:11;;;;;;;;;;;;;;;19.21;64.88;99416.75;4974265;28;1402;-64
2021/03/15 06:51:36;;;;;;;;;;;;;;;19.28;63.96;99410.53;4978462;28;1906;-63
2021/03/15 06:54:02;;;;;;;;;;;;;;;19.23;63.05;99414.72;4994345;28;1715;-57
2021/03/15 06:56:27;;;;;;;;;;;;;;;19.44;62.38;99404.31;4993834;28;10695;-57
2021/03/15 06:58:59;;;;;;;;;;;;;;;19.48;62.10;99396.75;5015473;28;1401;-62
2021/03/15 07:01:25;;;;;;;;;;;;;;;19.50;62.05;99396.56;4997878;28;1413;-62
2021/03/15 07:03:51;;;;;;;;;;;;;;;19.35;62.04;99383.88;5015745;28;1230;-65
2021/03/15 07:06:20;;;;;;;;;;;;;;;19.32;61.80;99389.59;5016234;28;1535;-59
2021/03/15 07:08:46;;;;;;;;;;;;;;;19.47;62.63;99385.19;5019659;28;1682;-59
2021/03/15 07:11:18;;;;;;;;;;;;;;;19.62;62.49;99388.00;5020325;28;1420;-57
2021/03/15 07:13:44;;;;;;;;;;;;;;;19.62;62.35;99387.16;5031078;28;1976;-61
2021/03/15 07:16:20;;;;;;;;;;;;;;;19.59;62.22;99384.81;5029570;28;1361;-63
2021/03/15 07:18:45;;;;;;;;;;;;;;;19.56;62.71;99391.38;5030468;28;1383;-58
2021/03/15 07:21:29;;;;;;;;;;;;;;;19.44;62.76;99395.44;5020074;28;1260;-58
2021/03/15 07:23:57;;;;;;;;;;;;;;;19.39;62.95;99379.00;5030196;28;1678;-59
2021/03/15 07:26:24;;;;;;;;;;;;;;;19.23;63.84;99380.72;5020983;28;1672;-58
2021/03/15 07:28:50;;;;;;;;;;;;;;;19.17;64.29;99396.66;5032030;28;1482;-59
2021/03/15 07:31:26;;;;;;;;;;;;;;;19.04;64.44;99383.78;5044126;28;1559;-59
2021/03/15 07:33:54;;;;;;;;;;;;;;;19.03;64.23;99384.78;5040739;28;1914;-60
2021/03/15 07:36:20;;;;;;;;;;;;;;;19.01;64.32;99387.63;5036868;28;1124;-60
2021/03/15 07:38:47;;;;;;;;;;;;;;;19.00;64.22;99375.25;5045815;28;1759;-59
2021/03/15 07:41:13;;;;;;;;;;;;;;;19.03;64.52;99384.78;5033423;28;1653;-59
2021/03/15 07:43:39;;;;;;;;;;;;;;;19.00;63.96;99375.25;5033345;28;1495;-59
2021/03/15 07:46:15;;;;;;;;;;;;;;;19.05;64.07;99372.88;5045215;28;746;-59
2021/03/15 07:48:41;;;;;;;;;;;;;;;19.06;63.87;99373.75;5045290;28;853;-59
2021/03/15 07:51:09;;;;;;;;;;;;;;;19.11;63.78;99374.03;5044344;28;1793;-59
2021/03/15 07:53:38;;;;;;;;;;;;;;;19.07;63.83;99367.34;5023888;28;1963;-59
2021/03/15 07:56:05;;;;;;;;;;;;;;;19.02;64.08;99354.47;5028782;28;1565;-59
2021/03/15 07:58:34;;;;;;;;;;;;;;;19.06;63.91;99363.03;5034720;28;1460;-60
2021/03/15 08:01:01;;;;;;;;;;;;;;;19.10;63.26;99359.00;5031420;28;1407;-60
2021/03/15 08:03:27;;;;;;;;;;;;;;;19.07;63.98;99354.78;5039075;28;1674;-59
2021/03/15 08:05:53;;;;;;;;;;;;;;;19.04;64.05;99349.78;5035678;28;1560;-59
2021/03/15 08:08:18;;;;;;;;;;;;;;;19.04;64.05;99340.91;5032733;28;1614;-59
2021/03/15 08:10:44;;;;;;;;;;;;;;;19.06;64.11;99339.72;5034073;28;776;-60
2021/03/15 08:13:20;;;;;;;;;;;;;;;19.02;64.10;99335.72;5044100;28;1914;-59
2021/03/15 08:15:47;;;;;;;;;;;;;;;19.02;64.18;99324.16;5034446;28;1697;-59
2021/03/15 08:18:14;;;;;;;;;;;;;;;19.02;64.30;99330.38;5034418;28;1368;-59
2021/03/15 08:20:43;;;;;;;;;;;;;;;18.96;64.37;99322.16;5029418;28;1444;-59
2021/03/15 08:23:08;;;;;;;;;;;;;;;18.94;63.95;99313.47;5030198;28;1338;-59
2021/03/15 08:25:34;;;;;;;;;;;;;;;18.91;64.60;99309.28;5032851;28;1423;-59
2021/03/15 08:28:02;;;;;;;;;;;;;;;18.95;64.75;99323.19;5031099;28;1534;-59
2021/03/15 08:30:29;;;;;;;;;;;;;;;19.02;64.27;99314.28;5028371;28;1247;-59
2021/03/15 08:32:55;;;;;;;;;;;;;;;19.07;64.29;99301.19;5034483;28;1987;-59
2021/03/15 08:35:21;;;;;;;;;;;;;;;19.07;64.30;99305.72;5033896;28;1354;-59
2021/03/15 08:37:58;;;;;;;;;;;;;;;19.03;64.18;99305.22;5030484;28;1428;-60
2021/03/15 08:40:42;;;;;;;;;;;;;;;19.01;64.30;99295.72;5030085;28;1285;-59
2021/03/15 08:43:22;;;;;;;;;;;;;;;19.00;64.38;99289.50;5038740;28;1658;-60
2021/03/15 08:45:47;;;;;;;;;;;;;;;19.01;64.30;99287.66;5028153;28;1741;-59
2021/03/15 08:48:13;;;;;;;;;;;;;;;19.04;64.21;99290.00;5043439;28;1756;-59
2021/03/15 08:50:38;;;;;;;;;;;;;;;19.02;64.05;99279.47;5033368;28;1605;-60
2021/03/15 08:53:03;;;;;;;;;;;;;;;19.01;64.10;99288.50;5032944;28;1885;-59
2021/03/15 08:55:46;;;;;;;;;;;;;;;18.98;64.14;99288.84;5028578;28;1214;-60
2021/03/15 08:58:31;;;;;;;;;;;;;;;18.93;64.10;99266.25;5041473;28;1530;-59
2021/03/15 09:00:57;;;;;;;;;;;;;;;18.90;63.99;99272.81;5012597;28;1443;-59
2021/03/15 09:03:41;;;;;;;;;;;;;;;18.96;64.13;99271.25;5033211;28;1669;-59
2021/03/15 09:06:06;;;;;;;;;;;;;;;18.99;63.64;99268.25;5036778;28;1657;-58
2021/03/15 09:08:50;;;;;;;;;;;;;;;19.15;62.57;99270.88;5043067;28;1720;-59
2021/03/15 09:11:31;;;;;;;;;;;;;;;19.08;62.97;99254.66;5027633;28;1242;-59
2021/03/15 09:14:17;;;;;;;;;;;;;;;19.08;61.56;99256.50;5016935;28;1403;-60
2021/03/15 09:16:49;;;;;;;;;;;;;;;19.05;60.87;99246.97;5023896;28;1398;-59
2021/03/15 09:19:30;;;;;;;;;;;;;;;18.97;57.72;99249.66;5025021;28;1368;-59
2021/03/15 09:21:59;;;;;;;;;;;;;;;18.94;61.35;99252.69;5019086;28;1420;-59
2021/03/15 09:24:37;;;;;;;;;;;;;;;18.93;58.69;99252.88;5030481;28;768;-59
2021/03/15 09:27:28;;;;;;;;;;;;;;;18.99;58.45;99249.50;5032157;28;1446;-59
2021/03/15 09:29:55;;;;;;;;;;;;;;;19.12;57.45;99238.22;5038851;28;1291;-59
2021/03/15 09:32:31;;;;;;;;;;;;;;;19.20;57.73;99222.97;5039014;28;1953;-59
2021/03/15 09:34:58;;;;;;;;;;;;;;;19.19;56.75;99223.13;5027204;28;1342;-59
2021/03/15 09:37:23;;;;;;;;;;;;;;;19.19;56.33;99210.56;5033233;28;1600;-59
2021/03/15 09:39:49;;;;;;;;;;;;;;;19.28;56.55;99201.47;5040728;28;1295;-59
2021/03/15 09:42:16;;;;;;;;;;;;;;;19.35;56.14;99209.66;5029845;28;1521;-59
2021/03/15 09:44:42;;;;;;;;;;;;;;;19.39;53.49;99202.91;5033968;28;1502;-59
2021/03/15 09:47:08;;;;;;;;;;;;;;;19.41;56.40;99192.84;5041618;28;1351;-58
2021/03/15 09:49:36;;;;;;;;;;;;;;;19.36;57.14;99197.06;5041996;28;1536;-58
2021/03/15 09:52:15;;;;;;;;;;;;;;;19.36;56.80;99202.44;5044637;28;1948;-58
2021/03/15 09:54:41;;;;;;;;;;;;;;;19.36;57.26;99187.19;5042838;28;1346;-59
2021/03/15 09:57:07;;;;;;;;;;;;;;;19.30;56.91;99185.22;5030784;28;1439;-59
2021/03/15 09:59:32;;;;;;;;;;;;;;;19.31;57.50;99176.16;5030134;28;1435;-59
2021/03/15 10:02:04;;;;;;;;;;;;;;;19.34;57.79;99172.28;5032203;28;1451;-59
2021/03/15 10:04:33;;;;;;;;;;;;;;;19.33;57.65;99168.78;5034432;28;1562;-58
2021/03/15 10:07:00;;;;;;;;;;;;;;;19.28;57.18;99163.97;5041171;28;1363;-59
2021/03/15 10:09:25;;;;;;;;;;;;;;;19.23;57.94;99181.56;5005240;28;711;-59
2021/03/15 10:11:50;;;;;;;;;;;;;;;19.17;56.80;99166.19;5030905;28;1914;-59
2021/03/15 10:14:16;;;;;;;;;;;;;;;19.11;57.69;99164.22;5041111;28;1403;-59
2021/03/15 10:16:51;;;;;;;;;;;;;;;19.04;57.81;99154.22;5035153;28;1344;-59
2021/03/15 10:19:24;;;;;;;;;;;;;;;19.02;58.27;99163.41;5006917;28;1604;-59
2021/03/15 10:21:49;;;;;;;;;;;;;;;19.03;57.89;99143.66;5038491;28;1594;-59
2021/03/15 10:24:14;;;;;;;;;;;;;;;19.10;58.26;99141.97;5037979;28;1009;-59
2021/03/15 10:26:41;;;;;;;;;;;;;;;19.08;57.91;99142.13;5023573;28;1424;-59
2021/03/15 10:29:08;;;;;;;;;;;;;;;19.05;58.26;99126.41;5037255;28;1427;-59
2021/03/15 10:31:38;;;;;;;;;;;;;;;19.03;58.48;99138.31;5032815;28;1482;-59
2021/03/15 10:34:07;;;;;;;;;;;;;;;19.06;57.77;99133.44;5010502;28;1375;-59
2021/03/15 10:36:32;;;;;;;;;;;;;;;19.09;57.43;99126.88;5035007;28;1368;-58
2021/03/15 10:38:58;;;;;;;;;;;;;;;19.11;57.05;99124.03;5042883;28;1415;-57
2021/03/15 10:41:23;;;;;;;;;;;;;;;19.23;57.45;99122.63;5028109;28;1612;-58
2021/03/15 10:43:50;;;;;;;;;;;;;;;19.21;55.88;99116.59;5038044;28;1557;-56
2021/03/15 10:46:18;;;;;;;;;;;;;;;19.19;56.27;99107.91;5034712;28;1427;-59
2021/03/15 10:48:44;;;;;;;;;;;;;;;19.20;57.32;99106.88;5036732;28;1208;-59
2021/03/15 10:51:09;;;;;;;;;;;;;;;19.12;55.34;99114.97;5034124;28;1726;-59
2021/03/15 10:53:43;;;;;;;;;;;;;;;19.02;57.70;99093.75;5028695;28;1894;-60
2021/03/15 10:56:15;;;;;;;;;;;;;;;18.99;58.09;99115.56;5038327;28;1400;-59
2021/03/15 10:58:40;;;;;;;;;;;;;;;18.92;58.34;99104.72;5045246;28;1539;-59
2021/03/15 11:01:06;;;;;;;;;;;;;;;18.92;58.37;99101.19;5046482;28;1487;-59
2021/03/15 11:03:31;;;;;;;;;;;;;;;18.95;57.73;99087.44;5035928;28;1734;-59
2021/03/15 11:06:03;;;;;;;;;;;;;;;18.86;57.96;99098.22;5032192;28;1737;-59
2021/03/15 11:08:28;;;;;;;;;;;;;;;18.92;58.05;99094.00;5029280;28;1325;-59
2021/03/15 11:10:53;;;;;;;;;;;;;;;18.92;58.51;99096.69;5035312;28;1220;-59
2021/03/15 11:13:21;;;;;;;;;;;;;;;18.91;57.47;99086.13;5044884;28;1973;-60
2021/03/15 11:15:47;;;;;;;;;;;;;;;18.92;56.54;99071.72;5047009;28;1733;-59
2021/03/15 11:18:17;;;;;;;;;;;;;;;18.93;57.50;99066.19;5034424;28;1384;-59
2021/03/15 11:20:42;;;;;;;;;;;;;;;18.93;57.24;99068.06;5030752;28;1767;-59
2021/03/15 11:23:08;;;;;;;;;;;;;;;18.88;58.29;99057.88;5032322;28;1617;-59
2021/03/15 11:25:34;;;;;;;;;;;;;;;18.88;58.44;99077.44;5031945;28;726;-59
2021/03/15 11:28:17;;;;;;;;;;;;;;;18.85;56.52;99071.59;5045528;28;1533;-59
2021/03/15 11:30:43;;;;;;;;;;;;;;;18.78;55.57;99066.09;5033626;28;1369;-59
2021/03/15 11:33:21;;;;;;;;;;;;;;;18.76;56.21;99052.03;5036835;28;1949;-59
2021/03/15 11:35:46;;;;;;;;;;;;;;;18.81;57.13;99048.88;5030009;28;1580;-59
2021/03/15 11:38:11;;;;;;;;;;;;;;;18.78;55.78;99049.16;5040977;28;1626;-59
2021/03/15 11:40:38;;;;;;;;;;;;;;;18.75;56.40;99042.31;5043769;28;1657;-59
2021/03/15 11:43:04;;;;;;;;;;;;;;;18.73;57.41;99035.50;5044671;28;1669;-59
2021/03/15 11:45:30;;;;;;;;;;;;;;;18.68;56.82;99028.81;5031507;28;1769;-59
2021/03/15 11:47:56;;;;;;;;;;;;;;;18.67;56.76;99021.78;5041245;28;1418;-60
2021/03/15 11:50:22;;;;;;;;;;;;;;;18.64;56.84;99022.16;5037961;28;1698;-59
2021/03/15 11:52:48;;;;;;;;;;;;;;;18.67;56.61;99015.59;5036246;28;1910;-60
2021/03/15 11:55:13;;;;;;;;;;;;;;;18.65;57.21;99023.81;5043224;28;765;-59
2021/03/15 11:57:38;;;;;;;;;;;;;;;18.63;55.73;99015.13;5039390;28;1772;-58
2021/03/15 12:00:05;;;;;;;;;;;;;;;18.69;57.35;98998.34;5043386;28;1569;-59
2021/03/15 12:02:30;;;;;;;;;;;;;;;18.73;57.83;98996.16;5042923;28;1638;-60
2021/03/15 12:04:55;;;;;;;;;;;;;;;18.76;57.64;98987.78;5044051;28;1559;-59
2021/03/15 12:07:21;;;;;;;;;;;;;;;18.73;57.93;99004.19;5044957;28;1567;-59
2021/03/15 12:09:46;;;;;;;;;;;;;;;18.63;58.21;98985.66;5043361;28;880;-59
2021/03/15 12:12:12;;;;;;;;;;;;;;;18.60;58.38;98986.03;5032258;28;1910;-59
2021/03/15 12:14:37;;;;;;;;;;;;;;;18.63;58.21;98982.16;5037964;28;1392;-58
2021/03/15 12:17:03;;;;;;;;;;;;;;;18.69;58.14;98979.59;5045531;28;1617;-59
2021/03/15 12:19:28;;;;;;;;;;;;;;;18.71;58.53;98971.41;5034854;28;1448;-59
2021/03/15 12:21:53;;;;;;;;;;;;;;;18.75;58.74;98972.72;5043879;28;1567;-59
2021/03/15 12:24:18;;;;;;;;;;;;;;;18.74;58.68;98972.88;5035260;28;814;-59
2021/03/15 12:26:44;;;;;;;;;;;;;;;18.76;58.81;98960.16;5036589;28;1880;-58
2021/03/15 12:29:09;;;;;;;;;;;;;;;18.74;59.70;98962.16;5043778;28;1192;-58
2021/03/15 12:31:34;;;;;;;;;;;;;;;18.72;59.50;98953.47;5033276;28;1416;-58
2021/03/15 12:34:00;;;;;;;;;;;;;;;18.72;60.09;98951.66;5044353;28;1949;-58
2021/03/15 12:36:25;;;;;;;;;;;;;;;18.66;60.46;98934.47;5037943;28;1526;-59
2021/03/15 12:38:50;;;;;;;;;;;;;;;18.71;60.60;98949.16;5039342;28;1654;-60
2021/03/15 12:41:16;;;;;;;;;;;;;;;18.73;60.70;98949.81;5035435;28;1644;-59
2021/03/15 12:43:41;;;;;;;;;;;;;;;18.78;60.30;98942.06;5015398;28;1443;-59
2021/03/15 12:46:06;;;;;;;;;;;;;;;18.80;60.46;98934.72;5034048;28;1487;-59
2021/03/15 12:48:35;;;;;;;;;;;;;;;18.78;60.45;98936.69;5033891;28;1737;-59
2021/03/15 12:51:00;;;;;;;;;;;;;;;18.77;61.08;98937.72;5040618;28;1748;-59
2021/03/15 12:53:25;;;;;;;;;;;;;;;18.79;61.10;98933.03;5037545;28;1882;-59
2021/03/15 12:55:51;;;;;;;;;;;;;;;18.87;60.70;98919.59;5026605;28;1567;-59
2021/03/15 12:58:17;;;;;;;;;;;;;;;18.86;61.18;98921.44;5041660;28;1327;-59
2021/03/15 13:00:42;;;;;;;;;;;;;;;18.79;61.32;98916.97;5031236;28;1678;-59
2021/03/15 13:03:08;;;;;;;;;;;;;;;18.75;61.70;98921.84;5030698;28;1669;-59